Etusivu
METAR-TAF:

METAR-TAF

Lentoasemat :

Khartum, Sudan

Leveyspiiri: 15-36N, Pituuspiiri: 032-33E, korkeus merenpinnasta: 382 m

Tämänhetkinen sää

Tämä raportti tehtiin 15 minuuttia sitten, kello 07.30 UTC
Tuuli 15 kn pohjoisesta/koillisesta
Lämpötila 28°C
Kosteus 17%
Ilmanpaine 1012 hPa
Näkyvyys: 4000 m
hiekkatuisku

METAR: HSSS 250730Z 02015KT 4000 BLSA 28/01 Q1012 NOSIG

Aika: 10:45 (07:45 UTC)

Sääennuste

Tämä raportti tehtiin 2 tuntia ja 45 minuuttia sitten, kello 05.00 UTC
Ennuste voimassa 25. päivästä klo 06 UTC - 26. päivään klo 12 UTC
Tuuli 12 kn pohjoisesta puuskistuen 20 kn:hen
Näkyvyys 10 km tai enemmän
ei pilviä alle 1500 m:ssä eikä cumulonimbus-pilviä

TAF: HSSS 250500Z 2506/2612 36012G20KT CAVOK

Säähavainnot ja -ennusteet yli 4000 lentoasemalta (METAR- ja TAF-raportit).

Käytössä olevat sääasemat on merkitty karttaan keltaisilla ja punaisilla pisteillä.

Aseta hiiri pisteen päälle nähdäksesi sääaseman nimen.

Klikkaa sitten nähdäksesi säähavainnot ja -ennusteet.

Kartan vaihtaminen: klikkaa mustalla rastilla varustettuja vihreitä pisteitä, niin voit zoomata sisään; viivalla varustettua vihreää pistettä, niin voit zoomata ulos tai vihreitä nuolia, niin pääset viereisille kartoille.


METAR-TAF: